Time;durP1;ratioP1;P1;durP2;ratioP2;P2;SDS_P1;SDS_P2;PMS_P1;PMS_P2;Temp;Humidity;BMP_temperature;BMP_pressure;BME280_temperature;BME280_humidity;BME280_pressure;Samples;Min_cycle;Max_cycle;Signal;HPM_P1;HPM_P2
2021/07/20 00:00:15;;;;;;;8.38;4.18;;;;;;;20.79;59.37;100328.38;5043235;28;19993;-63
2021/07/20 00:02:44;;;;;;;9.30;4.13;;;;;;;20.82;59.44;100337.00;5045543;28;20124;-65
2021/07/20 00:05:15;;;;;;;9.25;3.85;;;;;;;20.76;59.46;100348.94;5040934;28;20351;-65
2021/07/20 00:07:43;;;;;;;9.73;5.00;;;;;;;20.69;59.40;100358.06;5035251;28;20045;-64
2021/07/20 00:10:13;;;;;;;9.85;4.20;;;;;;;20.59;59.76;100325.28;5040741;28;20140;-64
2021/07/20 00:12:40;;;;;;;;;;;;;;;20.65;59.86;100339.22;5034089;28;20152;-64
2021/07/20 00:15:09;;;;;;;9.02;4.70;;;;;;;20.72;59.72;100317.63;5039279;28;20003;-67
2021/07/20 00:17:39;;;;;;;8.45;4.47;;;;;;;20.84;59.62;100328.13;5039579;28;20140;-64
2021/07/20 00:20:06;;;;;;;;;;;;;;;20.85;59.48;100329.78;5045920;28;20084;-62
2021/07/20 00:22:33;;;;;;;10.38;4.75;;;;;;;20.54;59.64;100296.31;5040334;28;20015;-62
2021/07/20 00:25:00;;;;;;;10.88;5.78;;;;;;;20.79;59.72;100343.41;5041671;28;20462;-62
2021/07/20 00:27:27;;;;;;;7.40;4.15;;;;;;;20.68;59.62;100339.34;5041657;28;20037;-62
2021/07/20 00:29:54;;;;;;;8.50;4.35;;;;;;;20.55;60.11;100344.22;5036030;28;20129;-63
2021/07/20 00:32:20;;;;;;;13.55;5.53;;;;;;;20.41;60.01;100323.84;5035807;28;20076;-61
2021/07/20 00:34:47;;;;;;;12.75;5.93;;;;;;;20.45;60.46;100350.31;5045944;28;20080;-63
2021/07/20 00:37:14;;;;;;;11.95;5.22;;;;;;;20.40;60.46;100341.19;5047980;28;20079;-62
2021/07/20 00:39:41;;;;;;;13.10;5.35;;;;;;;20.38;60.80;100338.72;5039345;28;20133;-63
2021/07/20 00:42:08;;;;;;;10.48;5.25;;;;;;;20.27;61.05;100324.19;5032245;28;20076;-63
2021/07/20 00:44:35;;;;;;;11.52;5.65;;;;;;;20.24;61.13;100327.72;5031650;28;20100;-63
2021/07/20 00:47:02;;;;;;;12.30;6.00;;;;;;;20.22;61.46;100324.38;5031491;28;20128;-64
2021/07/20 00:49:28;;;;;;;9.02;4.70;;;;;;;20.29;61.54;100323.81;5041743;28;20072;-69
2021/07/20 00:51:55;;;;;;;12.18;5.80;;;;;;;20.30;61.69;100320.59;5048465;28;20068;-76
2021/07/20 00:54:23;;;;;;;10.80;4.80;;;;;;;20.25;61.67;100337.88;5059579;28;20057;-77
2021/07/20 00:56:51;;;;;;;14.60;5.35;;;;;;;20.08;62.02;100330.38;5040259;28;20068;-77
2021/07/20 00:59:19;;;;;;;14.45;6.40;;;;;;;20.01;62.20;100330.13;5039316;28;20127;-69
2021/07/20 01:01:46;;;;;;;11.35;5.45;;;;;;;19.95;62.58;100331.53;5055606;28;20128;-70
2021/07/20 01:04:13;;;;;;;12.20;5.43;;;;;;;19.94;62.91;100340.38;5033549;28;20049;-68
2021/07/20 01:06:41;;;;;;;14.07;5.28;;;;;;;19.81;63.08;100314.00;5039723;28;20076;-66
2021/07/20 01:09:09;;;;;;;11.68;4.53;;;;;;;19.90;63.14;100326.09;5049665;28;20204;-66
2021/07/20 01:11:37;;;;;;;10.95;5.32;;;;;;;19.89;63.35;100335.75;5043453;28;20311;-65
2021/07/20 01:14:06;;;;;;;12.02;4.85;;;;;;;19.89;63.25;100324.41;5057357;28;20098;-67
2021/07/20 01:16:34;;;;;;;14.02;5.35;;;;;;;20.02;63.30;100326.09;5046759;28;20045;-65
2021/07/20 01:19:04;;;;;;;10.57;5.07;;;;;;;19.96;63.14;100315.34;5044870;28;20049;-64
2021/07/20 01:21:34;;;;;;;14.30;5.80;;;;;;;20.00;63.18;100334.16;5039929;28;20140;-69
2021/07/20 01:24:12;;;;;;;12.90;5.28;;;;;;;19.70;63.43;100290.94;5035496;28;20080;-68
2021/07/20 01:26:40;;;;;;;11.23;4.22;;;;;;;19.79;63.38;100307.84;5047118;28;20140;-67
2021/07/20 01:29:07;;;;;;;11.85;5.28;;;;;;;19.96;63.79;100321.81;5041497;28;20068;-66
2021/07/20 01:31:39;;;;;;;12.70;4.88;;;;;;;19.97;63.86;100312.16;5041308;28;20076;-67
2021/07/20 01:34:08;;;;;;;9.13;4.80;;;;;;;19.97;63.91;100320.66;5038634;28;20041;-67
2021/07/20 01:36:36;;;;;;;10.00;4.93;;;;;;;19.91;63.99;100324.91;5040417;28;20045;-70
2021/07/20 01:39:06;;;;;;;9.70;4.70;;;;;;;19.89;64.29;100332.91;5049650;28;20128;-70
2021/07/20 01:41:34;;;;;;;12.57;5.10;;;;;;;19.88;64.68;100319.94;5043354;28;20041;-70
2021/07/20 01:44:06;;;;;;;11.95;5.18;;;;;;;19.80;64.20;100290.50;5046870;28;20087;-65
2021/07/20 01:46:36;;;;;;;11.98;4.85;;;;;;;19.99;64.18;100314.63;5044167;28;20124;-67
2021/07/20 01:49:08;;;;;;;13.40;5.40;;;;;;;19.73;64.05;100306.44;5048387;28;20049;-65
2021/07/20 01:51:37;;;;;;;10.73;5.05;;;;;;;19.78;64.53;100326.84;5036528;28;20053;-66
2021/07/20 01:54:05;;;;;;;10.15;5.07;;;;;;;19.71;64.84;100317.25;5037372;28;20052;-66
2021/07/20 01:56:32;;;;;;;12.23;6.00;;;;;;;19.71;64.76;100322.94;5044106;28;20132;-67
2021/07/20 01:58:59;;;;;;;9.45;4.72;;;;;;;19.60;65.24;100311.19;5053746;28;20072;-73
2021/07/20 02:01:45;;;;;;;12.80;5.07;;;;;;;19.52;65.24;100303.56;5046124;28;20128;-67
2021/07/20 02:09:36;;;;;;;16.02;6.28;;;;;;;19.55;65.69;100298.03;5044292;28;20092;-68
2021/07/20 02:12:13;;;;;;;14.48;5.88;;;;;;;19.59;65.87;100298.19;5048649;28;20076;-65
2021/07/20 02:14:43;;;;;;;14.45;6.97;;;;;;;19.58;65.53;100297.34;5038676;28;20128;-62
2021/07/20 02:17:11;;;;;;;15.20;6.68;;;;;;;19.60;65.91;100305.50;5040640;28;20072;-62
2021/07/20 02:19:47;;;;;;;;;;;;;;;19.52;65.64;100307.25;5052774;28;20048;-62
2021/07/20 02:22:20;;;;;;;13.25;5.93;;;;;;;19.59;65.68;100298.19;5036966;28;20035;-61
2021/07/20 02:24:49;;;;;;;13.25;6.05;;;;;;;19.63;66.02;100296.34;5034721;28;20140;-61
2021/07/20 02:27:20;;;;;;;15.35;6.50;;;;;;;19.69;65.70;100299.78;5044397;28;20533;-62
2021/07/20 02:29:47;;;;;;;12.00;5.40;;;;;;;19.61;66.04;100287.31;5040961;28;20532;-63
2021/07/20 02:32:16;;;;;;;13.27;6.40;;;;;;;19.61;65.67;100288.16;5043053;28;20053;-71
2021/07/20 02:34:44;;;;;;;14.40;5.82;;;;;;;19.63;65.85;100305.66;5037556;28;20454;-71
2021/07/20 02:37:13;;;;;;;11.82;5.97;;;;;;;19.61;66.20;100296.66;5045178;28;20080;-73
2021/07/20 02:39:41;;;;;;;15.43;6.85;;;;;;;19.79;65.94;100299.34;5043441;28;20049;-72
2021/07/20 02:42:09;;;;;;;13.48;6.10;;;;;;;19.94;65.86;100295.88;5046591;28;20067;-67
2021/07/20 02:44:38;;;;;;;12.75;6.05;;;;;;;19.95;65.40;100283.34;5039871;28;20131;-65
2021/07/20 02:47:05;;;;;;;12.18;5.32;;;;;;;19.83;65.47;100274.81;5048425;28;20137;-64
2021/07/20 02:49:36;;;;;;;10.43;4.97;;;;;;;19.94;65.48;100290.19;5035709;28;20041;-65
2021/07/20 02:52:03;;;;;;;;;;;;;;;19.90;65.36;100289.25;5040946;28;20131;-68
2021/07/20 02:54:30;;;;;;;12.82;6.45;;;;;;;20.00;65.40;100294.47;5039265;28;19967;-67
2021/07/20 02:56:58;;;;;;;12.63;6.03;;;;;;;19.97;65.25;100275.31;5037161;28;20279;-68
2021/07/20 02:59:26;;;;;;;15.20;7.20;;;;;;;19.98;65.49;100282.63;5032036;28;20096;-69
2021/07/20 03:01:57;;;;;;;14.85;5.90;;;;;;;20.03;65.28;100279.59;5049048;28;20056;-69
2021/07/20 03:04:24;;;;;;;11.75;4.97;;;;;;;19.80;65.28;100241.50;5044639;28;20447;-70
2021/07/20 03:06:56;;;;;;;10.63;5.72;;;;;;;20.05;65.23;100276.41;5043585;28;20049;-71
2021/07/20 03:09:24;;;;;;;11.77;5.32;;;;;;;20.06;65.01;100261.03;5053453;28;20049;-66
2021/07/20 03:12:02;;;;;;;12.38;5.53;;;;;;;20.04;65.21;100258.56;5038355;28;20160;-68
2021/07/20 03:14:31;;;;;;;10.52;4.95;;;;;;;20.15;65.07;100269.44;5045189;28;20069;-68
2021/07/20 03:16:59;;;;;;;12.23;5.30;;;;;;;20.11;65.02;100272.97;5045443;28;20132;-67
2021/07/20 03:19:28;;;;;;;8.68;3.90;;;;;;;19.91;64.98;100264.56;5043185;28;20132;-68
2021/07/20 03:22:00;;;;;;;11.30;4.35;;;;;;;19.80;65.08;100262.19;5038041;28;20128;-68
2021/07/20 03:24:28;;;;;;;11.45;5.38;;;;;;;19.79;65.42;100265.34;5052114;28;20099;-68
2021/07/20 03:26:56;;;;;;;8.05;3.90;;;;;;;19.74;65.25;100262.75;5043900;28;20071;-68
2021/07/20 03:29:24;;;;;;;8.63;3.88;;;;;;;19.75;65.30;100264.38;5043881;28;20092;-72
2021/07/20 03:31:52;;;;;;;10.35;4.38;;;;;;;19.79;65.65;100260.50;5042172;28;20060;-71
2021/07/20 03:34:21;;;;;;;11.88;4.00;;;;;;;19.92;65.43;100269.88;5040287;28;20458;-71
2021/07/20 03:36:48;;;;;;;7.47;4.38;;;;;;;19.99;65.21;100272.94;5042049;28;20128;-70
2021/07/20 03:39:17;;;;;;;10.57;5.43;;;;;;;19.98;64.86;100262.81;5050603;28;20124;-71
2021/07/20 03:41:45;;;;;;;10.63;4.82;;;;;;;20.10;64.87;100271.34;5038000;28;20072;-64
2021/07/20 03:44:13;;;;;;;9.73;4.57;;;;;;;20.15;64.65;100264.59;5033946;28;20176;-67
2021/07/20 03:46:42;;;;;;;11.10;4.95;;;;;;;20.09;64.70;100268.84;5044965;28;20144;-72
2021/07/20 03:49:09;;;;;;;8.52;4.28;;;;;;;19.95;64.47;100268.34;5041366;28;20048;-64
2021/07/20 03:51:36;;;;;;;10.82;4.85;;;;;;;19.96;64.55;100273.66;5044913;28;20068;-63
2021/07/20 03:54:04;;;;;;;11.43;4.80;;;;;;;19.99;64.92;100280.63;5037245;28;20084;-62
2021/07/20 03:56:33;;;;;;;12.20;5.95;;;;;;;19.89;65.02;100267.72;5038353;28;20132;-64
2021/07/20 03:59:05;;;;;;;12.13;5.32;;;;;;;20.03;64.82;100275.91;5042418;28;20132;-63
2021/07/20 04:01:35;;;;;;;12.20;5.55;;;;;;;20.09;65.14;100281.00;5042093;28;20045;-71
2021/07/20 04:04:03;;;;;;;10.15;5.20;;;;;;;20.15;64.85;100290.13;5041492;28;20140;-65
2021/07/20 04:06:32;;;;;;;8.98;4.63;;;;;;;20.20;64.63;100289.88;5039892;28;20127;-64
2021/07/20 04:09:01;;;;;;;10.35;5.05;;;;;;;20.22;64.66;100289.53;5039384;28;20076;-65
2021/07/20 04:11:27;;;;;;;10.93;5.28;;;;;;;20.15;64.88;100281.59;5040653;28;20125;-67
2021/07/20 04:13:55;;;;;;;9.88;4.38;;;;;;;20.24;64.72;100287.16;5036462;28;20133;-66
2021/07/20 04:16:25;;;;;;;10.60;5.05;;;;;;;20.30;64.59;100289.41;5045068;28;20140;-65
2021/07/20 04:18:53;;;;;;;9.93;5.00;;;;;;;20.36;64.38;100301.38;5044611;28;20136;-66
2021/07/20 04:21:20;;;;;;;9.88;5.10;;;;;;;20.16;64.77;100274.75;5042828;28;20084;-71
2021/07/20 04:23:51;;;;;;;8.73;5.25;;;;;;;20.32;64.62;100301.25;5035656;28;20045;-63
2021/07/20 04:26:19;;;;;;;12.82;6.05;;;;;;;20.24;64.67;100282.34;5031617;28;20132;-63
2021/07/20 04:28:46;;;;;;;11.43;5.68;;;;;;;20.36;64.81;100318.38;5040592;28;20497;-64
2021/07/20 04:31:17;;;;;;;10.48;5.93;;;;;;;20.36;64.86;100321.22;5039993;28;20141;-63
2021/07/20 04:33:46;;;;;;;11.35;6.55;;;;;;;20.40;64.66;100322.16;5035167;28;20053;-64
2021/07/20 04:36:16;;;;;;;15.67;6.37;;;;;;;20.38;64.83;100321.72;5039203;28;20069;-64
2021/07/20 04:38:43;;;;;;;10.95;6.35;;;;;;;20.43;64.88;100323.47;5035540;28;20612;-63
2021/07/20 04:41:16;;;;;;;12.15;5.22;;;;;;;20.44;64.77;100313.78;5035778;28;20132;-65
2021/07/20 04:43:45;;;;;;;14.93;5.85;;;;;;;20.46;64.72;100317.09;5037633;28;20081;-64
2021/07/20 04:46:13;;;;;;;10.50;5.80;;;;;;;20.36;64.59;100302.19;5039625;28;20144;-65
2021/07/20 04:48:40;;;;;;;8.95;5.32;;;;;;;20.45;64.66;100321.94;5047102;28;20049;-64
2021/07/20 04:51:08;;;;;;;11.27;5.65;;;;;;;20.36;64.87;100301.38;5044277;28;20128;-65
2021/07/20 04:53:38;;;;;;;13.23;6.55;;;;;;;20.56;64.59;100323.16;5035386;28;20144;-62
2021/07/20 04:56:05;;;;;;;13.88;6.72;;;;;;;20.56;64.49;100323.16;5037617;28;20556;-62
2021/07/20 04:58:33;;;;;;;16.95;7.90;;;;;;;20.55;64.50;100329.19;5035331;28;20123;-64
2021/07/20 05:01:02;;;;;;;13.43;6.47;;;;;;;20.56;64.48;100320.31;5041489;28;20136;-64
2021/07/20 05:03:32;;;;;;;16.05;6.40;;;;;;;20.54;64.82;100313.34;5031264;28;20099;-63
2021/07/20 05:06:00;;;;;;;14.30;6.47;;;;;;;20.34;64.49;100275.34;5040112;28;20183;-63
2021/07/20 05:08:28;;;;;;;14.77;7.82;;;;;;;20.50;64.53;100321.72;5033955;28;20172;-63
2021/07/20 05:10:55;;;;;;;15.98;6.93;;;;;;;20.49;64.56;100328.56;5041937;28;20088;-68
2021/07/20 05:13:24;;;;;;;17.38;6.72;;;;;;;20.41;64.64;100309.66;5047553;28;20076;-72
2021/07/20 05:15:55;;;;;;;15.85;7.38;;;;;;;20.61;64.70;100332.63;5037498;28;20251;-65
2021/07/20 05:18:23;;;;;;;15.07;6.30;;;;;;;20.69;64.32;100334.53;5043854;28;20547;-63
2021/07/20 05:20:55;;;;;;;13.02;6.43;;;;;;;20.59;64.37;100338.66;5045841;28;20084;-67
2021/07/20 05:23:23;;;;;;;16.15;7.15;;;;;;;20.54;64.75;100347.38;5035759;28;20059;-62
2021/07/20 05:25:58;;;;;;;10.77;5.68;;;;;;;20.48;64.71;100338.25;5045405;28;20133;-63
2021/07/20 05:28:26;;;;;;;12.35;6.25;;;;;;;20.45;64.46;100333.28;5037828;28;20132;-64
2021/07/20 05:30:58;;;;;;;11.63;5.67;;;;;;;20.50;64.65;100340.72;5038249;28;20076;-65
2021/07/20 05:33:26;;;;;;;13.07;7.15;;;;;;;20.52;64.70;100356.25;5046041;28;20075;-66
2021/07/20 05:35:56;;;;;;;16.00;7.03;;;;;;;20.53;64.75;100352.22;5039560;28;20077;-65
2021/07/20 05:38:23;;;;;;;;;;;;;;;20.50;64.47;100349.25;5035534;28;20568;-62
2021/07/20 05:40:54;;;;;;;17.50;7.30;;;;;;;20.54;64.32;100359.56;5046619;28;19952;-65
2021/07/20 05:43:22;;;;;;;13.43;6.90;;;;;;;20.48;64.37;100360.97;5050140;28;20537;-65
2021/07/20 05:45:48;;;;;;;17.40;6.80;;;;;;;20.46;64.72;100363.31;5047686;28;20072;-63
2021/07/20 05:48:18;;;;;;;13.55;6.30;;;;;;;20.48;64.72;100349.59;5039061;28;20045;-63
2021/07/20 05:50:51;;;;;;;14.15;6.55;;;;;;;20.48;64.56;100326.09;5043455;28;20076;-62
2021/07/20 05:53:21;;;;;;;13.00;7.38;;;;;;;20.61;64.46;100349.63;5044418;28;20054;-63
2021/07/20 05:55:53;;;;;;;14.43;6.80;;;;;;;20.46;64.42;100343.44;5043692;28;20037;-64
2021/07/20 05:58:21;;;;;;;13.50;7.15;;;;;;;20.49;64.64;100356.09;5037751;28;20132;-64
2021/07/20 06:00:52;;;;;;;14.68;7.18;;;;;;;20.52;64.75;100344.91;5033735;28;20124;-64
2021/07/20 06:03:23;;;;;;;16.48;7.25;;;;;;;20.52;64.42;100349.75;5039604;28;21950;-64
2021/07/20 06:05:52;;;;;;;13.45;7.13;;;;;;;20.49;64.58;100348.41;5047433;28;20086;-64
2021/07/20 06:08:23;;;;;;;16.15;7.80;;;;;;;20.35;64.52;100331.75;5042786;28;20076;-64
2021/07/20 06:11:03;;;;;;;14.88;6.93;;;;;;;20.42;64.40;100341.69;5034970;28;20578;-64
2021/07/20 06:13:36;;;;;;;14.50;7.13;;;;;;;20.49;64.48;100362.59;5041205;28;20079;-64
2021/07/20 06:16:10;;;;;;;13.77;6.68;;;;;;;20.45;64.46;100372.19;5039098;28;20451;-64
2021/07/20 06:18:37;;;;;;;12.30;6.18;;;;;;;20.22;64.81;100335.72;5044762;28;20049;-64
2021/07/20 06:21:08;;;;;;;12.57;6.93;;;;;;;20.46;64.90;100380.31;5034327;28;20453;-63
2021/07/20 06:23:42;;;;;;;14.35;7.07;;;;;;;20.35;64.48;100362.13;5037102;28;20042;-63
2021/07/20 06:26:11;;;;;;;15.88;7.90;;;;;;;20.41;64.97;100372.06;5038181;28;20068;-63
2021/07/20 06:28:39;;;;;;;20.00;7.47;;;;;;;20.44;65.06;100377.00;5038397;28;20125;-64
2021/07/20 06:31:06;;;;;;;18.10;8.27;;;;;;;20.41;65.32;100379.72;5043103;28;20099;-64
2021/07/20 06:33:34;;;;;;;14.18;7.32;;;;;;;20.45;64.83;100390.03;5036446;28;20133;-64
2021/07/20 06:36:01;;;;;;;14.77;7.47;;;;;;;20.43;64.98;100380.19;5049525;28;20079;-64
2021/07/20 06:38:29;;;;;;;15.52;8.02;;;;;;;20.28;65.12;100359.84;5040098;28;20497;-64
2021/07/20 06:40:57;;;;;;;18.17;7.40;;;;;;;20.47;65.05;100393.31;5032141;28;20053;-63
2021/07/20 06:43:26;;;;;;;15.93;7.50;;;;;;;20.47;65.00;100395.34;5049589;28;20045;-63
2021/07/20 06:45:53;;;;;;;12.52;7.15;;;;;;;20.48;65.02;100395.00;5038185;28;20125;-64
2021/07/20 06:48:22;;;;;;;14.10;7.78;;;;;;;20.48;65.18;100388.50;5040273;28;20041;-63
2021/07/20 06:50:52;;;;;;;13.50;6.32;;;;;;;20.38;64.89;100386.94;5043219;28;20088;-63
2021/07/20 06:53:19;;;;;;;;;;;;;;;20.39;64.68;100402.75;5041711;28;20404;-63
2021/07/20 06:55:52;;;;;;;12.35;5.90;;;;;;;20.35;65.00;100396.16;5040045;28;19972;-63
2021/07/20 06:58:22;;;;;;;9.95;5.75;;;;;;;20.39;65.06;100414.13;5035791;28;20128;-63
2021/07/20 07:00:53;;;;;;;16.55;7.28;;;;;;;20.42;65.07;100406.91;5040585;28;20073;-66
2021/07/20 07:03:25;;;;;;;17.45;7.75;;;;;;;20.50;65.20;100406.84;5039090;28;20099;-66
2021/07/20 07:05:56;;;;;;;19.98;8.48;;;;;;;20.53;64.70;100394.78;5042462;28;20115;-65
2021/07/20 07:08:24;;;;;;;16.50;8.00;;;;;;;20.52;64.86;100401.66;5029345;28;20041;-67
2021/07/20 07:10:54;;;;;;;20.73;8.13;;;;;;;20.50;64.72;100397.47;5040422;28;20095;-66
2021/07/20 07:13:23;;;;;;;16.83;7.63;;;;;;;20.48;64.81;100389.31;5045874;28;20148;-67
2021/07/20 07:15:51;;;;;;;20.27;7.37;;;;;;;20.53;64.78;100391.94;5033393;28;20056;-67
2021/07/20 07:18:19;;;;;;;16.70;8.20;;;;;;;20.72;64.75;100405.59;5042378;28;20547;-66
2021/07/20 07:20:50;;;;;;;13.85;6.82;;;;;;;20.74;64.90;100408.06;5041402;28;20137;-68
2021/07/20 07:23:19;;;;;;;13.45;7.55;;;;;;;20.72;64.67;100408.44;5042208;28;20127;-67
2021/07/20 07:25:51;;;;;;;16.65;8.30;;;;;;;20.63;64.92;100389.84;5039849;28;20501;-67
2021/07/20 07:28:20;;;;;;;15.18;7.05;;;;;;;20.74;64.98;100402.38;5040027;28;20128;-67
2021/07/20 07:30:50;;;;;;;17.70;7.85;;;;;;;20.69;64.76;100399.78;5036061;28;20048;-65
2021/07/20 07:33:22;;;;;;;16.88;8.35;;;;;;;20.80;64.89;100413.16;5048374;28;20461;-66
2021/07/20 07:35:50;;;;;;;14.48;6.90;;;;;;;20.86;64.84;100425.13;5038572;28;20050;-68
2021/07/20 07:38:19;;;;;;;13.98;6.90;;;;;;;20.91;64.73;100418.38;5041886;28;20542;-67
2021/07/20 07:40:49;;;;;;;17.10;6.70;;;;;;;20.93;64.56;100428.19;5046916;28;20285;-66
2021/07/20 07:43:16;;;;;;;;;;;;;;;20.91;64.63;100435.41;5039566;28;20049;-67
2021/07/20 07:45:45;;;;;;;16.35;6.53;;;;;;;20.96;64.45;100441.69;5041149;28;20351;-66
2021/07/20 07:48:13;;;;;;;13.75;6.88;;;;;;;20.96;64.58;100438.84;5043950;28;20127;-66
2021/07/20 07:50:41;;;;;;;15.35;8.57;;;;;;;20.94;64.62;100441.19;5046856;28;20046;-65
2021/07/20 07:53:09;;;;;;;14.52;8.05;;;;;;;20.94;64.58;100441.19;5040147;28;20553;-65
2021/07/20 07:55:36;;;;;;;11.98;7.57;;;;;;;20.99;64.77;100452.34;5035039;28;20489;-65
2021/07/20 07:58:04;;;;;;;16.38;8.45;;;;;;;21.04;64.71;100445.59;5033535;28;20045;-67
2021/07/20 08:00:32;;;;;;;15.48;7.95;;;;;;;21.05;64.54;100448.06;5037349;28;20494;-65
2021/07/20 08:03:02;;;;;;;16.55;7.72;;;;;;;20.66;64.48;100366.44;5031229;28;20124;-68
2021/07/20 08:05:29;;;;;;;14.88;7.30;;;;;;;21.16;64.54;100441.91;5045245;28;20048;-67
2021/07/20 08:07:56;;;;;;;12.10;7.05;;;;;;;21.18;64.66;100448.91;5030857;28;20073;-67
2021/07/20 08:10:25;;;;;;;14.60;7.20;;;;;;;21.21;64.27;100444.53;5048670;28;20119;-67
2021/07/20 08:12:54;;;;;;;14.57;7.45;;;;;;;21.22;64.33;100452.66;5039231;28;20394;-66
2021/07/20 08:15:21;;;;;;;;;;;;;;;21.21;64.14;100444.53;5037040;28;20056;-74
2021/07/20 08:17:50;;;;;;;13.18;7.43;;;;;;;21.26;64.25;100447.09;5040117;28;20289;-67
2021/07/20 08:20:19;;;;;;;15.05;8.20;;;;;;;21.17;64.19;100437.91;5034604;28;20521;-66
2021/07/20 08:22:51;;;;;;;17.48;7.45;;;;;;;21.23;64.45;100459.19;5037546;28;20133;-66
2021/07/20 08:25:56;;;;;;;18.70;8.68;;;;;;;21.25;64.35;100456.81;5043814;28;20543;-67
2021/07/20 08:28:46;;;;;;;19.15;7.72;;;;;;;21.20;64.18;100457.06;5015661;28;20172;-67
2021/07/20 08:31:14;;;;;;;14.82;7.90;;;;;;;21.23;63.76;100454.34;5035038;28;20046;-67
2021/07/20 08:33:50;;;;;;;15.93;7.90;;;;;;;21.20;64.30;100459.91;5040199;28;20401;-67
2021/07/20 08:36:19;;;;;;;17.98;8.68;;;;;;;21.16;64.20;100442.75;5038434;28;20549;-67
2021/07/20 08:38:49;;;;;;;16.08;8.25;;;;;;;21.19;64.44;100450.53;5049325;28;20045;-67
2021/07/20 08:41:36;;;;;;;;;;;;;;;21.11;64.25;100451.50;5038233;28;20128;-66
2021/07/20 08:44:35;;;;;;;20.58;7.18;;;;;;;21.13;64.29;100439.78;5029719;28;20364;-66
2021/07/20 08:47:23;;;;;;;16.10;7.55;;;;;;;21.15;64.53;100445.94;5031779;28;20076;-67
2021/07/20 08:50:17;;;;;;;12.75;7.45;;;;;;;21.15;64.50;100454.47;5039349;28;20816;-67
2021/07/20 08:53:04;;;;;;;11.80;7.03;;;;;;;21.19;64.65;100472.44;5031401;28;20267;-68
2021/07/20 08:55:35;;;;;;;12.77;7.05;;;;;;;21.15;64.52;100465.81;5032879;28;20057;-69
2021/07/20 08:58:23;;;;;;;11.27;6.47;;;;;;;21.13;64.82;100457.66;5029645;28;20868;-70
2021/07/20 09:00:54;;;;;;;11.20;6.28;;;;;;;21.08;64.59;100440.03;5033082;28;20140;-68
2021/07/20 09:03:32;;;;;;;13.68;5.85;;;;;;;21.15;64.64;100445.94;5033423;28;20076;-69
2021/07/20 09:06:11;;;;;;;11.93;6.60;;;;;;;21.24;64.79;100446.66;5030049;28;20144;-69
2021/07/20 09:08:41;;;;;;;8.10;4.38;;;;;;;21.35;64.76;100444.19;5032767;28;20120;-67
2021/07/20 09:11:13;;;;;;;8.18;5.25;;;;;;;21.39;64.48;100439.44;5035221;28;20068;-70
2021/07/20 09:13:57;;;;;;;8.35;4.72;;;;;;;21.30;64.44;100445.25;5041644;28;20100;-69
2021/07/20 09:16:34;;;;;;;12.10;4.95;;;;;;;21.34;64.51;100448.19;5032832;28;20044;-69
2021/07/20 09:19:07;;;;;;;9.95;5.93;;;;;;;21.25;64.80;100451.16;5038548;28;20124;-69
2021/07/20 09:21:39;;;;;;;10.75;5.25;;;;;;;21.27;64.77;100438.25;5041709;28;20046;-67
2021/07/20 09:24:12;;;;;;;10.98;4.57;;;;;;;21.26;64.52;100435.75;5039872;28;20053;-70
2021/07/20 09:26:46;;;;;;;6.45;3.88;;;;;;;21.23;64.98;100420.28;5040495;28;20051;-68
2021/07/20 09:29:20;;;;;;;9.98;4.25;;;;;;;21.37;64.69;100436.13;5040230;28;20084;-69
2021/07/20 09:31:47;;;;;;;9.07;4.78;;;;;;;21.46;64.71;100451.03;5039383;28;20166;-70
2021/07/20 09:34:29;;;;;;;7.20;3.95;;;;;;;21.35;64.44;100427.97;5033401;28;20154;-69
2021/07/20 09:37:03;;;;;;;7.82;4.22;;;;;;;21.45;64.44;100452.22;5036810;28;20474;-69
2021/07/20 09:39:32;;;;;;;8.77;5.28;;;;;;;21.47;64.40;100464.91;5039024;28;20076;-68
2021/07/20 09:42:09;;;;;;;8.57;4.87;;;;;;;21.47;64.42;100452.69;5038837;28;20068;-69
2021/07/20 09:44:43;;;;;;;9.15;4.60;;;;;;;21.46;64.37;100451.03;5040029;28;20049;-69
2021/07/20 09:47:37;;;;;;;12.95;4.35;;;;;;;21.41;64.38;100452.13;5036504;28;22992;-70
2021/07/20 09:50:15;;;;;;;7.60;4.32;;;;;;;21.45;64.50;100444.53;5040257;28;20598;-69
2021/07/20 09:53:00;;;;;;;7.90;4.55;;;;;;;21.60;64.22;100460.00;5042716;28;20476;-72
2021/07/20 09:56:12;;;;;;;9.70;5.65;;;;;;;21.61;64.20;100452.34;5039176;28;20136;-69
2021/07/20 09:59:05;;;;;;;11.45;6.45;;;;;;;21.63;64.10;100458.47;5038645;28;20475;-72
2021/07/20 10:01:57;;;;;;;10.57;6.22;;;;;;;21.60;64.19;100456.34;5046797;28;20091;-72
2021/07/20 10:05:21;;;;;;;8.73;4.47;;;;;;;21.64;64.13;100454.44;5043484;28;20098;-72
2021/07/20 10:07:53;;;;;;;9.40;4.72;;;;;;;21.71;63.88;100461.19;5009163;28;20041;-69
2021/07/20 10:10:29;;;;;;;8.80;5.05;;;;;;;21.68;63.73;100449.72;5009601;28;20479;-68
2021/07/20 10:13:10;;;;;;;8.48;4.68;;;;;;;21.71;63.82;100458.34;5029082;28;20124;-68
2021/07/20 10:15:55;;;;;;;8.75;4.35;;;;;;;21.77;63.79;100479.63;5032092;28;20072;-68
2021/07/20 10:18:34;;;;;;;8.80;5.28;;;;;;;21.86;63.50;100465.31;5035544;28;20091;-68
2021/07/20 10:21:04;;;;;;;8.45;4.22;;;;;;;21.99;63.22;100478.31;5038372;28;20076;-68
2021/07/20 10:23:42;;;;;;;9.82;4.75;;;;;;;22.19;63.09;100487.06;5036375;28;20136;-68
2021/07/20 10:26:24;;;;;;;7.45;4.13;;;;;;;22.26;62.53;100475.88;5037888;28;20069;-68
2021/07/20 10:29:12;;;;;;;8.00;4.05;;;;;;;22.40;62.35;100496.19;5039783;28;20041;-68
2021/07/20 10:31:56;;;;;;;6.82;4.13;;;;;;;22.41;62.00;100502.72;5041444;28;20600;-67
2021/07/20 10:34:31;;;;;;;8.48;4.13;;;;;;;22.51;62.04;100507.06;5039947;28;20554;-66
2021/07/20 10:37:16;;;;;;;10.27;4.53;;;;;;;22.48;61.71;100483.00;5035456;28;20057;-66
2021/07/20 10:39:48;;;;;;;7.20;4.10;;;;;;;22.58;61.49;100491.00;5043154;28;20485;-68
2021/07/20 10:42:44;;;;;;;10.38;5.03;;;;;;;22.71;61.31;100503.16;5036360;28;20119;-65
2021/07/20 10:45:16;;;;;;;6.60;3.70;;;;;;;22.78;60.95;100505.38;5035272;28;20532;-67
2021/07/20 10:48:04;;;;;;;7.45;4.32;;;;;;;22.80;61.24;100503.81;5034540;28;20047;-66
2021/07/20 10:50:54;;;;;;;7.00;4.03;;;;;;;22.82;61.15;100512.81;5036385;28;20133;-66
2021/07/20 10:53:24;;;;;;;6.72;4.30;;;;;;;22.81;61.02;100496.94;5039135;28;20073;-65
2021/07/20 10:56:39;;;;;;;7.28;4.28;;;;;;;22.90;61.29;100508.16;5037986;28;20549;-66
2021/07/20 10:59:06;;;;;;;6.70;4.10;;;;;;;22.99;60.99;100523.09;5024560;28;20092;-64
2021/07/20 11:01:41;;;;;;;10.13;5.97;;;;;;;22.83;60.58;100497.38;5020943;28;20103;-65
2021/07/20 11:04:34;;;;;;;6.63;3.83;;;;;;;22.88;60.64;100513.41;5031874;28;20141;-66
2021/07/20 11:07:04;;;;;;;8.45;4.22;;;;;;;22.87;60.70;100515.44;5040337;28;20042;-65
2021/07/20 11:09:32;;;;;;;8.13;3.55;;;;;;;22.71;60.41;100495.47;5040776;28;20065;-65
2021/07/20 11:12:04;;;;;;;10.43;4.35;;;;;;;22.86;60.52;100516.59;5040386;28;20140;-66
2021/07/20 11:14:49;;;;;;;7.68;4.88;;;;;;;22.77;60.77;100498.88;5040493;28;20127;-66
2021/07/20 11:17:20;;;;;;;10.90;5.38;;;;;;;22.76;60.49;100496.38;5037376;28;20128;-66
2021/07/20 11:19:51;;;;;;;10.20;4.95;;;;;;;22.87;60.40;100504.03;5038746;28;20127;-66
2021/07/20 11:22:19;;;;;;;9.90;4.43;;;;;;;23.00;60.05;100512.50;5042860;28;20076;-67
2021/07/20 11:24:48;;;;;;;7.20;3.58;;;;;;;22.98;59.88;100509.22;5038833;28;20560;-66
2021/07/20 11:27:19;;;;;;;5.57;2.95;;;;;;;23.00;59.90;100510.50;5035878;28;20069;-65
2021/07/20 11:29:48;;;;;;;7.38;3.33;;;;;;;23.03;59.68;100506.91;5035549;28;20132;-65
2021/07/20 11:32:23;;;;;;;6.10;3.58;;;;;;;23.07;59.47;100502.13;5038377;28;20495;-63
2021/07/20 11:35:00;;;;;;;4.72;2.83;;;;;;;23.15;59.50;100503.16;5040944;28;20119;-66
2021/07/20 11:37:31;;;;;;;5.47;2.83;;;;;;;23.18;58.90;100491.03;5035057;28;20133;-66
2021/07/20 11:40:04;;;;;;;6.57;3.10;;;;;;;23.32;58.36;100508.50;5036389;28;20099;-65
2021/07/20 11:42:36;;;;;;;8.85;3.47;;;;;;;23.40;58.58;100512.34;5036079;28;20136;-66
2021/07/20 11:45:09;;;;;;;6.03;3.50;;;;;;;23.50;58.52;100513.81;5043772;28;20056;-66
2021/07/20 11:47:47;;;;;;;5.20;3.45;;;;;;;23.68;58.14;100498.00;5037698;28;20060;-65